aviador You're here:

LKPR Decoded Metar

PRAGUE in CZECH REPUBLIC
Report Time2018-01-21 08:30:00
UTC Time2018-01-21 08:38:05
Flight Rules lifr LIFR
Wind320° at 06 kt
W.Decomp.*RWY 30: 5.7 kt HW 1.9 kt RCW
RWY 24: 1.2 kt HW 5.9 kt RCW
RWY 04: 0.8 kt HW 5.9 kt LCW
W.Rank320° ranks 17
Current wind is below 320° avg. (7.2)
Visibility1500 m
Phenomena:Light Snow
Mist
Clouds:Broken 002 Hf
Overcast 008 Hf
Ceiling200 ft
Temp-2°C (ISA -15)
Dew Point-2°C (100% RH)
AAT-6.4°C
QNH1007 hPa
Density Alt-308 ft
Elevation1,198 ft
Report Wrong Elevation
Raw Report
METAR LKPR 210830Z 32006KT 1500 -SN BR BKN002 OVC008 M02/M02 Q1007
R24/690395 R30/591591 NOSIG=

Extra information for LKPR:More info

Metar Taf Metar & Taf Last 4 Metars F.Rules Stats Wind Profile Meteogram Temp Stats Airport Information Weather charts Add Link Nearby VenuesMetar ALERT Operation Metar Decoded Social comments